sensor_id;sensor_type;location;lat;lon;timestamp;P1;durP1;ratioP1;P2;durP2;ratioP2
6679;SDS011;3376;42.664;23.346;2024-03-17T00:00:41;24.40;;;14.53;;
6679;SDS011;3376;42.664;23.346;2024-03-17T00:04:08;23.37;;;15.33;;
6679;SDS011;3376;42.664;23.346;2024-03-17T00:07:36;30.43;;;16.50;;
6679;SDS011;3376;42.664;23.346;2024-03-17T00:11:03;20.57;;;16.13;;
6679;SDS011;3376;42.664;23.346;2024-03-17T00:14:28;17.97;;;14.70;;
6679;SDS011;3376;42.664;23.346;2024-03-17T00:17:53;25.57;;;15.30;;
6679;SDS011;3376;42.664;23.346;2024-03-17T00:21:23;21.87;;;14.37;;
6679;SDS011;3376;42.664;23.346;2024-03-17T00:24:51;17.20;;;15.40;;
6679;SDS011;3376;42.664;23.346;2024-03-17T00:28:18;21.67;;;15.40;;
6679;SDS011;3376;42.664;23.346;2024-03-17T00:31:43;22.53;;;18.43;;
6679;SDS011;3376;42.664;23.346;2024-03-17T00:35:09;25.07;;;16.83;;
6679;SDS011;3376;42.664;23.346;2024-03-17T00:38:37;26.30;;;16.40;;
6679;SDS011;3376;42.664;23.346;2024-03-17T00:42:05;18.37;;;14.90;;
6679;SDS011;3376;42.664;23.346;2024-03-17T00:45:31;22.47;;;15.13;;
6679;SDS011;3376;42.664;23.346;2024-03-17T00:48:57;21.53;;;17.70;;
6679;SDS011;3376;42.664;23.346;2024-03-17T00:52:37;21.50;;;14.67;;
6679;SDS011;3376;42.664;23.346;2024-03-17T00:56:04;27.43;;;17.50;;
6679;SDS011;3376;42.664;23.346;2024-03-17T00:59:30;26.83;;;16.30;;
6679;SDS011;3376;42.664;23.346;2024-03-17T01:02:58;20.73;;;16.67;;
6679;SDS011;3376;42.664;23.346;2024-03-17T01:06:23;24.37;;;19.33;;
6679;SDS011;3376;42.664;23.346;2024-03-17T01:09:52;26.93;;;19.30;;
6679;SDS011;3376;42.664;23.346;2024-03-17T01:13:19;37.53;;;18.63;;
6679;SDS011;3376;42.664;23.346;2024-03-17T01:16:44;27.50;;;19.23;;
6679;SDS011;3376;42.664;23.346;2024-03-17T01:20:09;28.83;;;19.00;;
6679;SDS011;3376;42.664;23.346;2024-03-17T01:23:37;28.87;;;19.17;;
6679;SDS011;3376;42.664;23.346;2024-03-17T01:27:06;23.50;;;19.10;;
6679;SDS011;3376;42.664;23.346;2024-03-17T01:30:32;22.07;;;16.50;;
6679;SDS011;3376;42.664;23.346;2024-03-17T01:33:59;27.63;;;17.30;;
6679;SDS011;3376;42.664;23.346;2024-03-17T01:37:26;27.87;;;17.40;;
6679;SDS011;3376;42.664;23.346;2024-03-17T01:40:52;23.20;;;18.73;;
6679;SDS011;3376;42.664;23.346;2024-03-17T01:48:00;29.13;;;18.43;;
6679;SDS011;3376;42.664;23.346;2024-03-17T01:51:26;24.13;;;17.47;;
6679;SDS011;3376;42.664;23.346;2024-03-17T01:54:52;19.63;;;16.87;;
6679;SDS011;3376;42.664;23.346;2024-03-17T01:58:22;23.33;;;18.30;;
6679;SDS011;3376;42.664;23.346;2024-03-17T02:01:52;24.83;;;18.77;;
6679;SDS011;3376;42.664;23.346;2024-03-17T02:05:18;25.60;;;18.80;;
6679;SDS011;3376;42.664;23.346;2024-03-17T02:08:47;23.97;;;17.43;;
6679;SDS011;3376;42.664;23.346;2024-03-17T02:12:13;22.27;;;16.93;;
6679;SDS011;3376;42.664;23.346;2024-03-17T02:15:39;21.97;;;18.30;;
6679;SDS011;3376;42.664;23.346;2024-03-17T02:19:09;20.93;;;17.80;;
6679;SDS011;3376;42.664;23.346;2024-03-17T02:22:38;26.13;;;19.10;;
6679;SDS011;3376;42.664;23.346;2024-03-17T02:26:02;23.17;;;17.90;;
6679;SDS011;3376;42.664;23.346;2024-03-17T02:29:29;24.50;;;18.20;;
6679;SDS011;3376;42.664;23.346;2024-03-17T02:32:55;21.83;;;17.27;;
6679;SDS011;3376;42.664;23.346;2024-03-17T02:36:22;23.97;;;18.17;;
6679;SDS011;3376;42.664;23.346;2024-03-17T02:39:50;23.13;;;17.63;;
6679;SDS011;3376;42.664;23.346;2024-03-17T02:43:16;23.83;;;18.00;;
6679;SDS011;3376;42.664;23.346;2024-03-17T02:46:42;28.33;;;18.50;;
6679;SDS011;3376;42.664;23.346;2024-03-17T02:50:09;24.00;;;17.93;;
6679;SDS011;3376;42.664;23.346;2024-03-17T02:53:35;19.37;;;16.30;;
6679;SDS011;3376;42.664;23.346;2024-03-17T02:57:03;32.33;;;18.33;;
6679;SDS011;3376;42.664;23.346;2024-03-17T03:00:29;24.77;;;17.37;;
6679;SDS011;3376;42.664;23.346;2024-03-17T03:03:56;31.03;;;18.20;;
6679;SDS011;3376;42.664;23.346;2024-03-17T03:07:25;21.43;;;18.20;;
6679;SDS011;3376;42.664;23.346;2024-03-17T03:10:51;24.83;;;19.23;;
6679;SDS011;3376;42.664;23.346;2024-03-17T03:14:18;23.17;;;17.50;;
6679;SDS011;3376;42.664;23.346;2024-03-17T03:17:44;23.30;;;18.27;;
6679;SDS011;3376;42.664;23.346;2024-03-17T03:21:11;27.47;;;18.93;;
6679;SDS011;3376;42.664;23.346;2024-03-17T03:24:36;25.23;;;18.80;;
6679;SDS011;3376;42.664;23.346;2024-03-17T03:28:05;19.93;;;16.33;;
6679;SDS011;3376;42.664;23.346;2024-03-17T03:31:33;32.70;;;18.73;;
6679;SDS011;3376;42.664;23.346;2024-03-17T03:35:01;24.80;;;18.47;;
6679;SDS011;3376;42.664;23.346;2024-03-17T03:38:33;26.70;;;19.13;;
6679;SDS011;3376;42.664;23.346;2024-03-17T03:42:01;24.47;;;19.70;;
6679;SDS011;3376;42.664;23.346;2024-03-17T03:45:27;28.50;;;18.27;;
6679;SDS011;3376;42.664;23.346;2024-03-17T03:48:57;26.90;;;17.73;;
6679;SDS011;3376;42.664;23.346;2024-03-17T03:52:23;26.60;;;23.40;;
6679;SDS011;3376;42.664;23.346;2024-03-17T03:55:49;24.70;;;17.87;;
6679;SDS011;3376;42.664;23.346;2024-03-17T03:59:15;22.67;;;18.13;;
6679;SDS011;3376;42.664;23.346;2024-03-17T04:02:42;27.00;;;17.07;;
6679;SDS011;3376;42.664;23.346;2024-03-17T04:06:09;24.50;;;17.10;;
6679;SDS011;3376;42.664;23.346;2024-03-17T04:09:37;24.50;;;18.63;;
6679;SDS011;3376;42.664;23.346;2024-03-17T04:13:03;23.40;;;18.20;;
6679;SDS011;3376;42.664;23.346;2024-03-17T04:16:30;20.77;;;18.00;;
6679;SDS011;3376;42.664;23.346;2024-03-17T04:19:56;24.83;;;17.97;;
6679;SDS011;3376;42.664;23.346;2024-03-17T04:23:24;21.50;;;18.07;;
6679;SDS011;3376;42.664;23.346;2024-03-17T04:26:50;25.93;;;18.23;;
6679;SDS011;3376;42.664;23.346;2024-03-17T04:30:15;26.80;;;19.13;;
6679;SDS011;3376;42.664;23.346;2024-03-17T04:33:43;22.50;;;19.07;;
6679;SDS011;3376;42.664;23.346;2024-03-17T04:37:13;25.37;;;18.33;;
6679;SDS011;3376;42.664;23.346;2024-03-17T04:40:41;24.83;;;18.60;;
6679;SDS011;3376;42.664;23.346;2024-03-17T04:44:08;25.57;;;19.50;;
6679;SDS011;3376;42.664;23.346;2024-03-17T04:47:36;25.93;;;18.63;;
6679;SDS011;3376;42.664;23.346;2024-03-17T04:51:02;26.50;;;21.40;;
6679;SDS011;3376;42.664;23.346;2024-03-17T04:54:27;28.23;;;19.97;;
6679;SDS011;3376;42.664;23.346;2024-03-17T04:57:55;27.23;;;19.37;;
6679;SDS011;3376;42.664;23.346;2024-03-17T05:01:21;24.60;;;19.40;;
6679;SDS011;3376;42.664;23.346;2024-03-17T05:04:48;27.23;;;19.87;;
6679;SDS011;3376;42.664;23.346;2024-03-17T05:08:14;20.57;;;17.23;;
6679;SDS011;3376;42.664;23.346;2024-03-17T05:11:40;29.53;;;19.60;;
6679;SDS011;3376;42.664;23.346;2024-03-17T05:15:09;23.83;;;18.43;;
6679;SDS011;3376;42.664;23.346;2024-03-17T05:18:38;24.00;;;19.30;;
6679;SDS011;3376;42.664;23.346;2024-03-17T05:22:05;27.17;;;18.73;;
6679;SDS011;3376;42.664;23.346;2024-03-17T05:25:31;24.57;;;18.07;;
6679;SDS011;3376;42.664;23.346;2024-03-17T05:28:57;30.47;;;18.97;;
6679;SDS011;3376;42.664;23.346;2024-03-17T05:32:24;24.97;;;18.73;;
6679;SDS011;3376;42.664;23.346;2024-03-17T05:35:53;37.77;;;23.27;;
6679;SDS011;3376;42.664;23.346;2024-03-17T05:39:18;28.07;;;22.13;;
6679;SDS011;3376;42.664;23.346;2024-03-17T05:42:44;23.43;;;19.00;;
6679;SDS011;3376;42.664;23.346;2024-03-17T05:46:10;22.27;;;18.13;;
6679;SDS011;3376;42.664;23.346;2024-03-17T05:49:40;20.80;;;18.30;;
6679;SDS011;3376;42.664;23.346;2024-03-17T05:53:07;27.53;;;19.30;;
6679;SDS011;3376;42.664;23.346;2024-03-17T05:56:33;24.07;;;18.70;;
6679;SDS011;3376;42.664;23.346;2024-03-17T05:59:59;23.33;;;17.83;;
6679;SDS011;3376;42.664;23.346;2024-03-17T06:03:28;29.47;;;17.90;;
6679;SDS011;3376;42.664;23.346;2024-03-17T06:06:55;27.83;;;18.87;;
6679;SDS011;3376;42.664;23.346;2024-03-17T06:10:20;27.87;;;19.90;;
6679;SDS011;3376;42.664;23.346;2024-03-17T06:13:47;22.10;;;19.43;;
6679;SDS011;3376;42.664;23.346;2024-03-17T06:17:15;20.30;;;18.10;;
6679;SDS011;3376;42.664;23.346;2024-03-17T06:20:43;21.53;;;18.87;;
6679;SDS011;3376;42.664;23.346;2024-03-17T06:24:12;20.27;;;18.20;;
6679;SDS011;3376;42.664;23.346;2024-03-17T06:27:37;21.80;;;17.83;;
6679;SDS011;3376;42.664;23.346;2024-03-17T06:31:05;24.00;;;19.17;;
6679;SDS011;3376;42.664;23.346;2024-03-17T06:34:34;24.63;;;19.83;;
6679;SDS011;3376;42.664;23.346;2024-03-17T06:38:19;23.23;;;18.93;;
6679;SDS011;3376;42.664;23.346;2024-03-17T06:41:49;22.07;;;19.07;;
6679;SDS011;3376;42.664;23.346;2024-03-17T06:45:18;19.93;;;17.90;;
6679;SDS011;3376;42.664;23.346;2024-03-17T06:48:45;20.33;;;18.20;;
6679;SDS011;3376;42.664;23.346;2024-03-17T06:52:11;21.23;;;17.03;;
6679;SDS011;3376;42.664;23.346;2024-03-17T06:55:39;21.37;;;18.60;;
6679;SDS011;3376;42.664;23.346;2024-03-17T06:59:05;20.57;;;18.47;;
6679;SDS011;3376;42.664;23.346;2024-03-17T07:02:39;21.97;;;17.97;;
6679;SDS011;3376;42.664;23.346;2024-03-17T07:06:06;19.43;;;17.43;;
6679;SDS011;3376;42.664;23.346;2024-03-17T07:09:32;20.83;;;18.27;;
6679;SDS011;3376;42.664;23.346;2024-03-17T07:13:03;25.70;;;19.27;;
6679;SDS011;3376;42.664;23.346;2024-03-17T07:16:31;20.53;;;18.23;;
6679;SDS011;3376;42.664;23.346;2024-03-17T07:20:05;20.27;;;18.47;;
6679;SDS011;3376;42.664;23.346;2024-03-17T07:23:35;19.43;;;17.53;;
6679;SDS011;3376;42.664;23.346;2024-03-17T07:27:01;25.20;;;18.13;;
6679;SDS011;3376;42.664;23.346;2024-03-17T07:30:30;20.90;;;18.70;;
6679;SDS011;3376;42.664;23.346;2024-03-17T07:33:56;24.37;;;19.70;;
6679;SDS011;3376;42.664;23.346;2024-03-17T07:37:22;20.10;;;18.33;;
6679;SDS011;3376;42.664;23.346;2024-03-17T07:40:55;22.30;;;20.03;;
6679;SDS011;3376;42.664;23.346;2024-03-17T07:44:26;19.87;;;17.77;;
6679;SDS011;3376;42.664;23.346;2024-03-17T07:47:53;26.67;;;20.30;;
6679;SDS011;3376;42.664;23.346;2024-03-17T07:51:18;20.40;;;16.73;;
6679;SDS011;3376;42.664;23.346;2024-03-17T07:54:45;16.27;;;14.57;;
6679;SDS011;3376;42.664;23.346;2024-03-17T07:58:12;15.97;;;14.57;;
6679;SDS011;3376;42.664;23.346;2024-03-17T08:01:43;14.73;;;13.10;;
6679;SDS011;3376;42.664;23.346;2024-03-17T08:05:11;14.13;;;12.93;;
6679;SDS011;3376;42.664;23.346;2024-03-17T08:08:37;14.50;;;13.20;;
6679;SDS011;3376;42.664;23.346;2024-03-17T08:12:04;14.23;;;12.90;;
6679;SDS011;3376;42.664;23.346;2024-03-17T08:15:30;15.70;;;14.10;;
6679;SDS011;3376;42.664;23.346;2024-03-17T08:19:00;13.73;;;12.23;;
6679;SDS011;3376;42.664;23.346;2024-03-17T08:22:26;13.57;;;12.27;;
6679;SDS011;3376;42.664;23.346;2024-03-17T08:25:54;12.47;;;11.47;;
6679;SDS011;3376;42.664;23.346;2024-03-17T08:29:21;12.17;;;11.13;;
6679;SDS011;3376;42.664;23.346;2024-03-17T08:32:48;11.53;;;10.57;;
6679;SDS011;3376;42.664;23.346;2024-03-17T08:36:16;10.70;;;9.83;;
6679;SDS011;3376;42.664;23.346;2024-03-17T08:39:45;10.73;;;9.83;;
6679;SDS011;3376;42.664;23.346;2024-03-17T08:43:12;13.43;;;11.07;;
6679;SDS011;3376;42.664;23.346;2024-03-17T08:46:37;11.67;;;10.57;;
6679;SDS011;3376;42.664;23.346;2024-03-17T08:50:04;11.10;;;10.37;;
6679;SDS011;3376;42.664;23.346;2024-03-17T08:53:42;12.00;;;11.10;;
6679;SDS011;3376;42.664;23.346;2024-03-17T08:57:07;13.40;;;10.77;;
6679;SDS011;3376;42.664;23.346;2024-03-17T09:00:35;12.07;;;10.83;;
6679;SDS011;3376;42.664;23.346;2024-03-17T09:04:01;12.57;;;11.47;;
6679;SDS011;3376;42.664;23.346;2024-03-17T09:07:29;13.33;;;12.23;;
6679;SDS011;3376;42.664;23.346;2024-03-17T09:11:00;12.90;;;11.77;;
6679;SDS011;3376;42.664;23.346;2024-03-17T09:14:29;12.30;;;11.23;;
6679;SDS011;3376;42.664;23.346;2024-03-17T09:17:57;17.20;;;12.40;;
6679;SDS011;3376;42.664;23.346;2024-03-17T09:21:23;13.83;;;12.47;;
6679;SDS011;3376;42.664;23.346;2024-03-17T09:24:49;12.63;;;11.37;;
6679;SDS011;3376;42.664;23.346;2024-03-17T09:28:22;11.90;;;11.13;;
6679;SDS011;3376;42.664;23.346;2024-03-17T09:31:50;11.43;;;10.50;;
6679;SDS011;3376;42.664;23.346;2024-03-17T09:35:16;12.13;;;11.33;;
6679;SDS011;3376;42.664;23.346;2024-03-17T09:38:42;11.67;;;10.97;;
6679;SDS011;3376;42.664;23.346;2024-03-17T09:42:14;10.23;;;9.50;;
6679;SDS011;3376;42.664;23.346;2024-03-17T09:45:43;9.77;;;9.17;;
6679;SDS011;3376;42.664;23.346;2024-03-17T09:49:10;9.90;;;9.40;;
6679;SDS011;3376;42.664;23.346;2024-03-17T09:52:42;7.73;;;7.23;;
6679;SDS011;3376;42.664;23.346;2024-03-17T09:56:10;6.80;;;6.50;;
6679;SDS011;3376;42.664;23.346;2024-03-17T09:59:42;6.17;;;5.77;;
6679;SDS011;3376;42.664;23.346;2024-03-17T10:03:09;6.20;;;5.70;;
6679;SDS011;3376;42.664;23.346;2024-03-17T10:06:44;7.20;;;6.50;;
6679;SDS011;3376;42.664;23.346;2024-03-17T10:10:10;7.57;;;7.07;;
6679;SDS011;3376;42.664;23.346;2024-03-17T10:13:36;8.00;;;7.43;;
6679;SDS011;3376;42.664;23.346;2024-03-17T10:17:05;8.77;;;8.07;;
6679;SDS011;3376;42.664;23.346;2024-03-17T10:20:48;6.57;;;6.27;;
6679;SDS011;3376;42.664;23.346;2024-03-17T10:24:18;5.97;;;5.67;;
6679;SDS011;3376;42.664;23.346;2024-03-17T10:27:44;6.20;;;5.90;;
6679;SDS011;3376;42.664;23.346;2024-03-17T10:31:12;6.63;;;6.33;;
6679;SDS011;3376;42.664;23.346;2024-03-17T10:34:41;5.70;;;5.50;;
6679;SDS011;3376;42.664;23.346;2024-03-17T10:38:09;5.10;;;4.80;;
6679;SDS011;3376;42.664;23.346;2024-03-17T10:41:56;5.20;;;5.00;;
6679;SDS011;3376;42.664;23.346;2024-03-17T10:45:23;4.40;;;4.20;;
6679;SDS011;3376;42.664;23.346;2024-03-17T10:48:54;4.27;;;3.97;;
6679;SDS011;3376;42.664;23.346;2024-03-17T10:52:22;4.33;;;3.97;;
6679;SDS011;3376;42.664;23.346;2024-03-17T10:55:51;5.10;;;4.17;;
6679;SDS011;3376;42.664;23.346;2024-03-17T10:59:21;3.10;;;3.00;;
6679;SDS011;3376;42.664;23.346;2024-03-17T11:02:49;3.50;;;3.30;;
6679;SDS011;3376;42.664;23.346;2024-03-17T11:06:17;2.50;;;2.40;;
6679;SDS011;3376;42.664;23.346;2024-03-17T11:09:45;3.20;;;3.03;;
6679;SDS011;3376;42.664;23.346;2024-03-17T11:13:24;4.53;;;4.00;;
6679;SDS011;3376;42.664;23.346;2024-03-17T11:16:49;5.60;;;4.67;;
6679;SDS011;3376;42.664;23.346;2024-03-17T11:20:17;5.07;;;4.73;;
6679;SDS011;3376;42.664;23.346;2024-03-17T11:24:01;4.17;;;3.97;;
6679;SDS011;3376;42.664;23.346;2024-03-17T11:27:44;5.10;;;4.70;;
6679;SDS011;3376;42.664;23.346;2024-03-17T11:35:12;5.80;;;5.47;;
6679;SDS011;3376;42.664;23.346;2024-03-17T11:39:00;5.40;;;5.10;;
6679;SDS011;3376;42.664;23.346;2024-03-17T11:42:28;4.37;;;4.17;;
6679;SDS011;3376;42.664;23.346;2024-03-17T11:45:54;4.67;;;4.47;;
6679;SDS011;3376;42.664;23.346;2024-03-17T11:49:23;4.73;;;4.53;;
6679;SDS011;3376;42.664;23.346;2024-03-17T11:52:59;5.57;;;4.10;;
6679;SDS011;3376;42.664;23.346;2024-03-17T11:56:24;4.23;;;4.03;;
6679;SDS011;3376;42.664;23.346;2024-03-17T11:59:52;4.10;;;3.90;;
6679;SDS011;3376;42.664;23.346;2024-03-17T12:03:18;3.80;;;3.50;;
6679;SDS011;3376;42.664;23.346;2024-03-17T12:06:46;3.63;;;3.53;;
6679;SDS011;3376;42.664;23.346;2024-03-17T12:10:14;4.77;;;4.47;;
6679;SDS011;3376;42.664;23.346;2024-03-17T12:13:43;3.90;;;3.70;;
6679;SDS011;3376;42.664;23.346;2024-03-17T12:17:10;4.47;;;4.27;;
6679;SDS011;3376;42.664;23.346;2024-03-17T12:20:47;5.57;;;4.37;;
6679;SDS011;3376;42.664;23.346;2024-03-17T12:24:17;5.07;;;4.77;;
6679;SDS011;3376;42.664;23.346;2024-03-17T12:27:48;5.07;;;4.77;;
6679;SDS011;3376;42.664;23.346;2024-03-17T12:31:15;4.60;;;4.30;;
6679;SDS011;3376;42.664;23.346;2024-03-17T12:34:43;3.90;;;3.73;;
6679;SDS011;3376;42.664;23.346;2024-03-17T12:38:20;4.40;;;4.20;;
6679;SDS011;3376;42.664;23.346;2024-03-17T12:42:07;4.67;;;4.47;;
6679;SDS011;3376;42.664;23.346;2024-03-17T12:45:41;5.23;;;4.90;;
6679;SDS011;3376;42.664;23.346;2024-03-17T12:49:09;4.10;;;3.90;;
6679;SDS011;3376;42.664;23.346;2024-03-17T12:52:40;4.50;;;4.30;;
6679;SDS011;3376;42.664;23.346;2024-03-17T12:56:08;4.87;;;4.57;;
6679;SDS011;3376;42.664;23.346;2024-03-17T12:59:54;5.00;;;4.80;;
6679;SDS011;3376;42.664;23.346;2024-03-17T13:03:25;5.57;;;5.27;;
6679;SDS011;3376;42.664;23.346;2024-03-17T13:06:52;5.33;;;5.03;;
6679;SDS011;3376;42.664;23.346;2024-03-17T13:10:22;5.97;;;5.30;;
6679;SDS011;3376;42.664;23.346;2024-03-17T13:13:50;5.47;;;5.17;;
6679;SDS011;3376;42.664;23.346;2024-03-17T13:17:16;5.87;;;5.47;;
6679;SDS011;3376;42.664;23.346;2024-03-17T13:20:44;5.43;;;5.23;;
6679;SDS011;3376;42.664;23.346;2024-03-17T13:24:09;5.93;;;5.63;;
6679;SDS011;3376;42.664;23.346;2024-03-17T13:27:37;5.67;;;5.47;;
6679;SDS011;3376;42.664;23.346;2024-03-17T13:31:04;5.97;;;5.67;;
6679;SDS011;3376;42.664;23.346;2024-03-17T13:34:32;5.73;;;5.53;;
6679;SDS011;3376;42.664;23.346;2024-03-17T13:38:00;6.60;;;6.30;;
6679;SDS011;3376;42.664;23.346;2024-03-17T13:41:26;6.73;;;6.20;;
6679;SDS011;3376;42.664;23.346;2024-03-17T13:44:53;6.67;;;6.37;;
6679;SDS011;3376;42.664;23.346;2024-03-17T13:48:20;6.33;;;6.00;;
6679;SDS011;3376;42.664;23.346;2024-03-17T13:51:45;6.57;;;6.07;;
6679;SDS011;3376;42.664;23.346;2024-03-17T13:55:13;6.93;;;6.53;;
6679;SDS011;3376;42.664;23.346;2024-03-17T13:58:39;8.90;;;6.50;;
6679;SDS011;3376;42.664;23.346;2024-03-17T14:02:06;7.00;;;6.60;;
6679;SDS011;3376;42.664;23.346;2024-03-17T14:05:34;7.43;;;7.00;;
6679;SDS011;3376;42.664;23.346;2024-03-17T14:09:01;7.77;;;7.17;;
6679;SDS011;3376;42.664;23.346;2024-03-17T14:12:28;8.03;;;7.33;;
6679;SDS011;3376;42.664;23.346;2024-03-17T14:15:57;7.20;;;6.80;;
6679;SDS011;3376;42.664;23.346;2024-03-17T14:19:25;7.77;;;7.17;;
6679;SDS011;3376;42.664;23.346;2024-03-17T14:22:54;7.13;;;6.63;;
6679;SDS011;3376;42.664;23.346;2024-03-17T14:26:20;6.70;;;6.37;;
6679;SDS011;3376;42.664;23.346;2024-03-17T14:29:49;7.37;;;6.73;;
6679;SDS011;3376;42.664;23.346;2024-03-17T14:33:15;13.27;;;6.40;;
6679;SDS011;3376;42.664;23.346;2024-03-17T14:36:43;6.57;;;6.10;;
6679;SDS011;3376;42.664;23.346;2024-03-17T14:40:14;6.83;;;6.30;;
6679;SDS011;3376;42.664;23.346;2024-03-17T14:43:40;7.07;;;6.67;;
6679;SDS011;3376;42.664;23.346;2024-03-17T14:47:06;7.70;;;6.97;;
6679;SDS011;3376;42.664;23.346;2024-03-17T14:50:34;6.40;;;5.90;;
6679;SDS011;3376;42.664;23.346;2024-03-17T14:54:00;6.93;;;6.33;;
6679;SDS011;3376;42.664;23.346;2024-03-17T14:57:28;7.60;;;7.20;;
6679;SDS011;3376;42.664;23.346;2024-03-17T15:00:54;6.90;;;6.50;;
6679;SDS011;3376;42.664;23.346;2024-03-17T15:04:20;8.17;;;7.47;;
6679;SDS011;3376;42.664;23.346;2024-03-17T15:07:48;7.60;;;7.10;;
6679;SDS011;3376;42.664;23.346;2024-03-17T15:11:14;8.00;;;7.40;;
6679;SDS011;3376;42.664;23.346;2024-03-17T15:14:42;8.23;;;7.73;;
6679;SDS011;3376;42.664;23.346;2024-03-17T15:18:11;8.50;;;7.90;;
6679;SDS011;3376;42.664;23.346;2024-03-17T15:21:37;8.47;;;7.90;;
6679;SDS011;3376;42.664;23.346;2024-03-17T15:25:03;8.03;;;7.43;;
6679;SDS011;3376;42.664;23.346;2024-03-17T15:28:36;8.50;;;7.83;;
6679;SDS011;3376;42.664;23.346;2024-03-17T15:32:03;11.67;;;10.57;;
6679;SDS011;3376;42.664;23.346;2024-03-17T15:35:32;10.13;;;9.33;;
6679;SDS011;3376;42.664;23.346;2024-03-17T15:38:59;9.30;;;8.47;;
6679;SDS011;3376;42.664;23.346;2024-03-17T15:42:25;7.10;;;6.80;;
6679;SDS011;3376;42.664;23.346;2024-03-17T15:45:54;7.83;;;7.43;;
6679;SDS011;3376;42.664;23.346;2024-03-17T15:49:21;7.13;;;6.60;;
6679;SDS011;3376;42.664;23.346;2024-03-17T15:52:47;7.60;;;7.17;;
6679;SDS011;3376;42.664;23.346;2024-03-17T15:56:15;7.17;;;6.80;;
6679;SDS011;3376;42.664;23.346;2024-03-17T15:59:41;7.57;;;6.90;;
6679;SDS011;3376;42.664;23.346;2024-03-17T16:03:08;7.90;;;7.40;;
6679;SDS011;3376;42.664;23.346;2024-03-17T16:06:36;9.07;;;8.33;;
6679;SDS011;3376;42.664;23.346;2024-03-17T16:10:04;8.80;;;8.30;;
6679;SDS011;3376;42.664;23.346;2024-03-17T16:13:30;8.47;;;7.87;;
6679;SDS011;3376;42.664;23.346;2024-03-17T16:16:55;8.70;;;8.13;;
6679;SDS011;3376;42.664;23.346;2024-03-17T16:24:10;10.20;;;9.37;;
6679;SDS011;3376;42.664;23.346;2024-03-17T16:27:37;12.20;;;11.07;;
6679;SDS011;3376;42.664;23.346;2024-03-17T16:31:04;12.33;;;11.47;;
6679;SDS011;3376;42.664;23.346;2024-03-17T16:34:30;13.60;;;12.13;;
6679;SDS011;3376;42.664;23.346;2024-03-17T16:38:00;11.53;;;10.70;;
6679;SDS011;3376;42.664;23.346;2024-03-17T16:41:27;11.10;;;10.33;;
6679;SDS011;3376;42.664;23.346;2024-03-17T16:44:54;11.93;;;10.90;;
6679;SDS011;3376;42.664;23.346;2024-03-17T16:48:27;12.20;;;11.23;;
6679;SDS011;3376;42.664;23.346;2024-03-17T16:51:53;11.83;;;10.90;;
6679;SDS011;3376;42.664;23.346;2024-03-17T16:55:21;12.67;;;11.43;;
6679;SDS011;3376;42.664;23.346;2024-03-17T16:58:47;12.97;;;11.73;;
6679;SDS011;3376;42.664;23.346;2024-03-17T17:02:13;11.80;;;10.77;;
6679;SDS011;3376;42.664;23.346;2024-03-17T17:05:40;14.40;;;12.73;;
6679;SDS011;3376;42.664;23.346;2024-03-17T17:09:05;26.13;;;19.27;;
6679;SDS011;3376;42.664;23.346;2024-03-17T17:12:35;46.20;;;24.53;;
6679;SDS011;3376;42.664;23.346;2024-03-17T17:16:01;32.57;;;20.63;;
6679;SDS011;3376;42.664;23.346;2024-03-17T17:19:28;18.83;;;16.00;;
6679;SDS011;3376;42.664;23.346;2024-03-17T17:22:58;24.23;;;17.03;;
6679;SDS011;3376;42.664;23.346;2024-03-17T17:26:30;14.03;;;12.73;;
6679;SDS011;3376;42.664;23.346;2024-03-17T17:29:57;14.43;;;12.97;;
6679;SDS011;3376;42.664;23.346;2024-03-17T17:33:24;13.87;;;12.50;;
6679;SDS011;3376;42.664;23.346;2024-03-17T17:36:50;15.67;;;13.73;;
6679;SDS011;3376;42.664;23.346;2024-03-17T17:40:17;13.33;;;12.13;;
6679;SDS011;3376;42.664;23.346;2024-03-17T17:43:43;13.03;;;12.17;;
6679;SDS011;3376;42.664;23.346;2024-03-17T17:47:13;14.73;;;13.53;;
6679;SDS011;3376;42.664;23.346;2024-03-17T17:50:40;14.60;;;13.23;;
6679;SDS011;3376;42.664;23.346;2024-03-17T17:54:07;14.90;;;13.57;;
6679;SDS011;3376;42.664;23.346;2024-03-17T17:57:33;14.73;;;13.63;;
6679;SDS011;3376;42.664;23.346;2024-03-17T18:01:00;15.73;;;14.17;;
6679;SDS011;3376;42.664;23.346;2024-03-17T18:04:27;16.20;;;14.73;;
6679;SDS011;3376;42.664;23.346;2024-03-17T18:07:53;14.87;;;13.47;;
6679;SDS011;3376;42.664;23.346;2024-03-17T18:11:22;13.47;;;12.37;;
6679;SDS011;3376;42.664;23.346;2024-03-17T18:14:48;14.50;;;13.13;;
6679;SDS011;3376;42.664;23.346;2024-03-17T18:18:21;12.03;;;11.13;;
6679;SDS011;3376;42.664;23.346;2024-03-17T18:21:49;12.87;;;11.77;;
6679;SDS011;3376;42.664;23.346;2024-03-17T18:25:15;10.63;;;9.73;;
6679;SDS011;3376;42.664;23.346;2024-03-17T18:28:42;9.23;;;8.53;;
6679;SDS011;3376;42.664;23.346;2024-03-17T18:32:09;9.90;;;9.30;;
6679;SDS011;3376;42.664;23.346;2024-03-17T18:35:37;10.00;;;9.30;;
6679;SDS011;3376;42.664;23.346;2024-03-17T18:39:05;9.77;;;8.97;;
6679;SDS011;3376;42.664;23.346;2024-03-17T18:42:36;9.23;;;8.53;;
6679;SDS011;3376;42.664;23.346;2024-03-17T18:46:07;7.63;;;7.13;;
6679;SDS011;3376;42.664;23.346;2024-03-17T18:49:34;7.97;;;7.37;;
6679;SDS011;3376;42.664;23.346;2024-03-17T18:53:00;8.10;;;7.53;;
6679;SDS011;3376;42.664;23.346;2024-03-17T18:56:28;7.97;;;7.27;;
6679;SDS011;3376;42.664;23.346;2024-03-17T18:59:54;10.90;;;8.73;;
6679;SDS011;3376;42.664;23.346;2024-03-17T19:03:20;9.03;;;8.33;;
6679;SDS011;3376;42.664;23.346;2024-03-17T19:06:45;9.87;;;9.17;;
6679;SDS011;3376;42.664;23.346;2024-03-17T19:10:13;10.13;;;9.53;;
6679;SDS011;3376;42.664;23.346;2024-03-17T19:13:42;10.17;;;9.47;;
6679;SDS011;3376;42.664;23.346;2024-03-17T19:17:08;11.90;;;9.03;;
6679;SDS011;3376;42.664;23.346;2024-03-17T19:20:35;10.53;;;9.80;;
6679;SDS011;3376;42.664;23.346;2024-03-17T19:24:04;9.93;;;9.33;;
6679;SDS011;3376;42.664;23.346;2024-03-17T19:27:32;11.40;;;10.33;;
6679;SDS011;3376;42.664;23.346;2024-03-17T19:31:01;11.70;;;10.63;;
6679;SDS011;3376;42.664;23.346;2024-03-17T19:34:29;11.50;;;10.77;;
6679;SDS011;3376;42.664;23.346;2024-03-17T19:37:57;12.93;;;11.93;;
6679;SDS011;3376;42.664;23.346;2024-03-17T19:41:25;11.77;;;10.97;;
6679;SDS011;3376;42.664;23.346;2024-03-17T19:44:54;12.97;;;11.87;;
6679;SDS011;3376;42.664;23.346;2024-03-17T19:48:35;17.50;;;15.63;;
6679;SDS011;3376;42.664;23.346;2024-03-17T19:52:01;15.10;;;13.73;;
6679;SDS011;3376;42.664;23.346;2024-03-17T19:55:27;13.40;;;12.13;;
6679;SDS011;3376;42.664;23.346;2024-03-17T19:58:52;14.23;;;13.03;;
6679;SDS011;3376;42.664;23.346;2024-03-17T20:02:25;14.87;;;12.97;;
6679;SDS011;3376;42.664;23.346;2024-03-17T20:05:56;13.43;;;12.37;;
6679;SDS011;3376;42.664;23.346;2024-03-17T20:09:23;12.87;;;11.80;;
6679;SDS011;3376;42.664;23.346;2024-03-17T20:12:51;12.97;;;11.90;;
6679;SDS011;3376;42.664;23.346;2024-03-17T20:16:19;13.07;;;11.87;;
6679;SDS011;3376;42.664;23.346;2024-03-17T20:19:47;13.20;;;12.10;;
6679;SDS011;3376;42.664;23.346;2024-03-17T20:23:13;13.23;;;11.93;;
6679;SDS011;3376;42.664;23.346;2024-03-17T20:26:40;11.33;;;10.53;;
6679;SDS011;3376;42.664;23.346;2024-03-17T20:30:07;12.43;;;11.43;;
6679;SDS011;3376;42.664;23.346;2024-03-17T20:33:35;11.63;;;10.53;;
6679;SDS011;3376;42.664;23.346;2024-03-17T20:37:04;11.63;;;10.70;;
6679;SDS011;3376;42.664;23.346;2024-03-17T20:40:32;10.37;;;9.77;;
6679;SDS011;3376;42.664;23.346;2024-03-17T20:43:59;8.83;;;8.27;;
6679;SDS011;3376;42.664;23.346;2024-03-17T20:47:24;9.20;;;8.60;;
6679;SDS011;3376;42.664;23.346;2024-03-17T20:50:50;9.23;;;8.73;;
6679;SDS011;3376;42.664;23.346;2024-03-17T20:54:18;10.90;;;9.93;;
6679;SDS011;3376;42.664;23.346;2024-03-17T20:57:44;8.47;;;7.93;;